Time;durP1;ratioP1;P1;durP2;ratioP2;P2;SDS_P1;SDS_P2;PMS_P1;PMS_P2;Temp;Humidity;BMP_temperature;BMP_pressure;BME280_temperature;BME280_humidity;BME280_pressure;Samples;Min_cycle;Max_cycle;Signal;HPM_P1;HPM_P2
2023/05/09 00:01:42;;;;;;;389.95;87.40;;;;;;;;;;4982162;28;20282;-56
2023/05/09 00:04:07;;;;;;;386.95;87.50;;;;;;;;;;4982949;28;20468;-58
2023/05/09 00:06:33;;;;;;;361.33;88.40;;;;;;;;;;4985062;28;20229;-59
2023/05/09 00:08:58;;;;;;;345.57;87.70;;;;;;;;;;4983157;28;21156;-56
2023/05/09 00:11:23;;;;;;;409.30;90.83;;;;;;;;;;4981857;28;20773;-55
2023/05/09 00:13:49;;;;;;;475.73;92.40;;;;;;;;;;4985817;28;20312;-56
2023/05/09 00:16:15;;;;;;;366.13;89.80;;;;;;;;;;4986279;28;20065;-56
2023/05/09 00:18:41;;;;;;;404.17;91.70;;;;;;;;;;4982749;28;20030;-57
2023/05/09 00:21:06;;;;;;;360.15;88.28;;;;;;;;;;4982754;28;20038;-58
2023/05/09 00:23:31;;;;;;;357.90;89.47;;;;;;;;;;4990631;28;20815;-56
2023/05/09 00:25:57;;;;;;;352.67;89.80;;;;;;;;;;4982850;28;20499;-59
2023/05/09 00:28:23;;;;;;;360.33;89.78;;;;;;;;;;4981819;28;20781;-57
2023/05/09 00:30:48;;;;;;;426.17;90.93;;;;;;;;;;4980190;28;20038;-57
2023/05/09 00:33:13;;;;;;;356.93;83.90;;;;;;;;;;4986941;28;20033;-56
2023/05/09 00:35:39;;;;;;;345.67;82.25;;;;;;;;;;4980721;28;20280;-58
2023/05/09 00:38:04;;;;;;;392.92;87.85;;;;;;;;;;4981565;28;20647;-57
2023/05/09 00:40:29;;;;;;;322.77;82.13;;;;;;;;;;4983456;28;20471;-57
2023/05/09 00:42:57;;;;;;;339.63;82.03;;;;;;;;;;4984206;28;20600;-57
2023/05/09 00:45:22;;;;;;;376.02;86.43;;;;;;;;;;4981336;28;20054;-58
2023/05/09 00:47:47;;;;;;;394.23;87.22;;;;;;;;;;4982377;28;20632;-57
2023/05/09 00:50:13;;;;;;;392.20;88.75;;;;;;;;;;4983720;28;20094;-56
2023/05/09 00:52:39;;;;;;;354.65;89.10;;;;;;;;;;4987321;28;20014;-58
2023/05/09 00:55:07;;;;;;;344.42;91.60;;;;;;;;;;4987576;28;20049;-57
2023/05/09 00:57:32;;;;;;;428.70;90.57;;;;;;;;;;4982210;28;20034;-59
2023/05/09 00:59:57;;;;;;;366.40;87.78;;;;;;;;;;4979932;28;20948;-58
2023/05/09 01:02:23;;;;;;;383.65;88.82;;;;;;;;;;4981700;28;20526;-59
2023/05/09 01:04:48;;;;;;;387.42;88.70;;;;;;;;;;4980848;28;20037;-58
2023/05/09 01:07:34;;;;;;;353.40;88.18;;;;;;;;;;4982366;28;20129;-60
2023/05/09 01:10:19;;;;;;;362.98;89.88;;;;;;;;;;4983667;28;20146;-58
2023/05/09 01:12:56;;;;;;;394.67;92.90;;;;;;;;;;4986340;28;20069;-57
2023/05/09 01:15:43;;;;;;;322.67;89.32;;;;;;;;;;4984738;28;20969;-57
2023/05/09 01:18:27;;;;;;;381.92;92.05;;;;;;;;;;4987036;28;20112;-59
2023/05/09 01:20:56;;;;;;;406.10;94.93;;;;;;;;;;4986636;28;20805;-56
2023/05/09 01:23:24;;;;;;;371.08;92.63;;;;;;;;;;4985528;28;20480;-56
2023/05/09 01:25:55;;;;;;;397.50;94.32;;;;;;;;;;4987835;28;20180;-58
2023/05/09 01:28:21;;;;;;;397.90;95.10;;;;;;;;;;4984573;28;20653;-59
2023/05/09 01:30:47;;;;;;;344.23;93.80;;;;;;;;;;4982789;28;20684;-56
2023/05/09 01:33:16;;;;;;;389.83;96.50;;;;;;;;;;4985239;28;20276;-58
2023/05/09 01:35:43;;;;;;;357.17;95.80;;;;;;;;;;4984886;28;20046;-59
2023/05/09 01:38:12;;;;;;;393.02;95.13;;;;;;;;;;4986018;28;20774;-57
2023/05/09 01:40:39;;;;;;;366.27;96.25;;;;;;;;;;4988542;28;20090;-58
2023/05/09 01:43:05;;;;;;;376.45;97.63;;;;;;;;;;4988237;28;20427;-59
2023/05/09 01:45:31;;;;;;;417.67;99.10;;;;;;;;;;4984368;28;20058;-57
2023/05/09 01:47:57;;;;;;;423.65;99.10;;;;;;;;;;4984235;28;20141;-58
2023/05/09 01:50:23;;;;;;;381.73;97.53;;;;;;;;;;4981324;28;20073;-56
2023/05/09 01:52:51;;;;;;;405.55;100.13;;;;;;;;;;4985957;28;20121;-57
2023/05/09 01:55:16;;;;;;;393.95;98.68;;;;;;;;;;4985934;28;20049;-56
2023/05/09 01:57:42;;;;;;;461.10;101.65;;;;;;;;;;4985097;28;20019;-59
2023/05/09 02:00:09;;;;;;;376.70;98.47;;;;;;;;;;4983647;28;20039;-56
2023/05/09 02:02:35;;;;;;;395.08;98.00;;;;;;;;;;4987196;28;20022;-58
2023/05/09 02:05:00;;;;;;;402.08;99.03;;;;;;;;;;4985542;28;20075;-56
2023/05/09 02:07:27;;;;;;;408.17;98.32;;;;;;;;;;4985757;28;20039;-58
2023/05/09 02:09:55;;;;;;;452.25;97.18;;;;;;;;;;4981944;28;20474;-58
2023/05/09 02:12:20;;;;;;;391.88;98.55;;;;;;;;;;4982647;28;20048;-59
2023/05/09 02:14:45;;;;;;;421.33;103.25;;;;;;;;;;4984160;28;20022;-56
2023/05/09 02:17:15;;;;;;;416.90;101.87;;;;;;;;;;4986539;28;20642;-59
2023/05/09 02:19:41;;;;;;;403.50;101.57;;;;;;;;;;4984443;28;20937;-56
2023/05/09 02:22:06;;;;;;;395.20;103.00;;;;;;;;;;4984919;28;20095;-57
2023/05/09 02:24:33;;;;;;;391.50;101.97;;;;;;;;;;4984528;28;20090;-57
2023/05/09 02:26:58;;;;;;;386.15;103.75;;;;;;;;;;4986990;28;20079;-56
2023/05/09 02:29:29;;;;;;;445.52;105.95;;;;;;;;;;4986528;28;20046;-59
2023/05/09 02:31:55;;;;;;;392.90;105.25;;;;;;;;;;4990031;28;20123;-56
2023/05/09 02:34:21;;;;;;;402.80;103.07;;;;;;;;;;4985436;28;20109;-57
2023/05/09 02:36:46;;;;;;;418.35;103.45;;;;;;;;;;4985166;28;20126;-56
2023/05/09 02:39:11;;;;;;;460.73;105.18;;;;;;;;;;4982899;28;20053;-59
2023/05/09 02:41:36;;;;;;;425.33;104.85;;;;;;;;;;4982248;28;20022;-58
2023/05/09 02:44:02;;;;;;;381.45;103.90;;;;;;;;;;4985740;28;20113;-58
2023/05/09 02:46:27;;;;;;;377.77;100.93;;;;;;;;;;4984585;28;20590;-56
2023/05/09 02:48:52;;;;;;;424.13;105.07;;;;;;;;;;4984120;28;20404;-56
2023/05/09 02:51:17;;;;;;;397.43;104.77;;;;;;;;;;4987428;28;20126;-57
2023/05/09 02:53:43;;;;;;;486.30;107.03;;;;;;;;;;4984300;28;20831;-58
2023/05/09 02:56:09;;;;;;;372.70;104.33;;;;;;;;;;4985141;28;21316;-58
2023/05/09 02:58:34;;;;;;;407.50;105.38;;;;;;;;;;4985237;28;20265;-59
2023/05/09 03:01:00;;;;;;;416.40;109.77;;;;;;;;;;4985492;28;20041;-55
2023/05/09 03:03:25;;;;;;;383.73;107.00;;;;;;;;;;4984095;28;20268;-59
2023/05/09 03:05:50;;;;;;;393.60;107.37;;;;;;;;;;4982440;28;20315;-60
2023/05/09 03:08:15;;;;;;;452.97;108.37;;;;;;;;;;4984877;28;20260;-58
2023/05/09 03:10:40;;;;;;;406.43;107.07;;;;;;;;;;4969492;28;20269;-58
2023/05/09 03:13:07;;;;;;;393.87;106.83;;;;;;;;;;4987430;28;20273;-59
2023/05/09 03:15:32;;;;;;;413.98;106.65;;;;;;;;;;4982752;28;20270;-57
2023/05/09 03:17:57;;;;;;;400.42;106.25;;;;;;;;;;4983363;28;20037;-58
2023/05/09 03:20:23;;;;;;;392.40;104.90;;;;;;;;;;4985917;28;20050;-58
2023/05/09 03:22:48;;;;;;;380.08;102.97;;;;;;;;;;4985342;28;20273;-59
2023/05/09 03:25:13;;;;;;;405.10;107.05;;;;;;;;;;4983296;28;20023;-57
2023/05/09 03:27:38;;;;;;;457.80;109.23;;;;;;;;;;4984833;28;20488;-57
2023/05/09 03:30:04;;;;;;;392.85;107.30;;;;;;;;;;4986802;28;20682;-57
2023/05/09 03:32:29;;;;;;;346.27;100.15;;;;;;;;;;4985206;28;20022;-57
2023/05/09 03:34:56;;;;;;;407.10;101.88;;;;;;;;;;4984762;28;20112;-59
2023/05/09 03:37:21;;;;;;;369.90;102.30;;;;;;;;;;4983742;28;20038;-57
2023/05/09 03:39:46;;;;;;;376.02;104.30;;;;;;;;;;4988036;28;20075;-57
2023/05/09 03:42:11;;;;;;;405.23;105.60;;;;;;;;;;4983893;28;20046;-58
2023/05/09 03:44:37;;;;;;;406.03;106.67;;;;;;;;;;4983814;28;20387;-59
2023/05/09 03:47:02;;;;;;;410.23;106.32;;;;;;;;;;4984168;28;20273;-60
2023/05/09 03:49:27;;;;;;;394.88;102.22;;;;;;;;;;4985115;28;20504;-59
2023/05/09 03:51:52;;;;;;;396.67;103.80;;;;;;;;;;4982237;28;20096;-57
2023/05/09 03:54:18;;;;;;;406.38;104.32;;;;;;;;;;4979706;28;20284;-58
2023/05/09 03:56:43;;;;;;;398.17;104.20;;;;;;;;;;4983575;28;20842;-59
2023/05/09 03:59:08;;;;;;;396.40;107.07;;;;;;;;;;4986575;28;21031;-57
2023/05/09 04:01:33;;;;;;;417.08;105.60;;;;;;;;;;4987521;28;20696;-59
2023/05/09 04:03:59;;;;;;;399.30;106.60;;;;;;;;;;4982746;28;20041;-57
2023/05/09 04:06:24;;;;;;;391.40;102.80;;;;;;;;;;4983901;28;20034;-59
2023/05/09 04:08:49;;;;;;;397.83;99.57;;;;;;;;;;4982665;28;20026;-58
2023/05/09 04:11:14;;;;;;;391.67;98.10;;;;;;;;;;4987170;28;20116;-60
2023/05/09 04:13:40;;;;;;;481.25;101.68;;;;;;;;;;4984427;28;20666;-57
2023/05/09 04:16:05;;;;;;;365.58;98.82;;;;;;;;;;4982946;28;20033;-59
2023/05/09 04:18:30;;;;;;;370.20;101.00;;;;;;;;;;4981986;28;20045;-58
2023/05/09 04:20:55;;;;;;;390.17;95.95;;;;;;;;;;4985932;28;20045;-59
2023/05/09 04:23:21;;;;;;;376.07;95.73;;;;;;;;;;4983732;28;20427;-60
2023/05/09 04:25:46;;;;;;;384.83;95.90;;;;;;;;;;4986123;28;20826;-60
2023/05/09 04:28:11;;;;;;;407.47;93.60;;;;;;;;;;4983605;28;20038;-61
2023/05/09 04:30:36;;;;;;;355.80;94.20;;;;;;;;;;4987717;28;20277;-56
2023/05/09 04:33:02;;;;;;;388.57;98.27;;;;;;;;;;4983855;28;20778;-58
2023/05/09 04:35:27;;;;;;;382.73;99.78;;;;;;;;;;4982367;28;21241;-57
2023/05/09 04:37:52;;;;;;;365.50;94.13;;;;;;;;;;4983427;28;20074;-58
2023/05/09 04:40:17;;;;;;;428.55;95.68;;;;;;;;;;4984976;28;20258;-57
2023/05/09 04:42:43;;;;;;;400.30;98.85;;;;;;;;;;4984207;28;20018;-59
2023/05/09 04:45:10;;;;;;;362.90;100.13;;;;;;;;;;4984479;28;20138;-58
2023/05/09 04:47:35;;;;;;;461.35;102.32;;;;;;;;;;4985301;28;20069;-58
2023/05/09 04:50:00;;;;;;;377.30;102.33;;;;;;;;;;4991070;28;20424;-59
2023/05/09 04:52:26;;;;;;;429.95;101.78;;;;;;;;;;4986893;28;20273;-59
2023/05/09 04:54:51;;;;;;;401.00;101.93;;;;;;;;;;4991276;28;20022;-59
2023/05/09 04:57:16;;;;;;;391.80;100.87;;;;;;;;;;4986296;28;20429;-58
2023/05/09 04:59:41;;;;;;;450.30;103.03;;;;;;;;;;4988285;28;20253;-61
2023/05/09 05:02:06;;;;;;;425.35;101.10;;;;;;;;;;4988627;28;20392;-59
2023/05/09 05:04:32;;;;;;;389.65;99.97;;;;;;;;;;4987865;28;20411;-57
2023/05/09 05:06:57;;;;;;;353.25;86.70;;;;;;;;;;4986913;28;20030;-59
2023/05/09 05:09:23;;;;;;;355.50;90.20;;;;;;;;;;4988369;28;20029;-58
2023/05/09 05:11:48;;;;;;;396.77;92.22;;;;;;;;;;4986570;28;20254;-58
2023/05/09 05:14:13;;;;;;;375.75;91.95;;;;;;;;;;4985580;28;20030;-60
2023/05/09 05:16:39;;;;;;;406.65;95.07;;;;;;;;;;4986940;28;20046;-61
2023/05/09 05:19:04;;;;;;;422.98;92.10;;;;;;;;;;4987470;28;20037;-57
2023/05/09 05:21:29;;;;;;;373.60;91.97;;;;;;;;;;4988829;28;20077;-59
2023/05/09 05:23:54;;;;;;;429.35;93.88;;;;;;;;;;4986969;28;20435;-61
2023/05/09 05:26:20;;;;;;;392.57;94.63;;;;;;;;;;4983697;28;20353;-57
2023/05/09 05:28:46;;;;;;;388.92;94.65;;;;;;;;;;4988048;28;20281;-57
2023/05/09 05:31:11;;;;;;;401.48;95.35;;;;;;;;;;4988926;28;20030;-59
2023/05/09 05:33:36;;;;;;;387.65;92.32;;;;;;;;;;4985393;28;20711;-58
2023/05/09 05:36:02;;;;;;;360.60;93.97;;;;;;;;;;4986650;28;20054;-60
2023/05/09 05:38:27;;;;;;;385.10;93.97;;;;;;;;;;4985835;28;20046;-59
2023/05/09 05:40:52;;;;;;;356.33;93.43;;;;;;;;;;4986165;28;20030;-59
2023/05/09 05:43:17;;;;;;;411.07;95.63;;;;;;;;;;4986155;28;20258;-59
2023/05/09 05:45:42;;;;;;;430.00;95.20;;;;;;;;;;4983330;28;20277;-59
2023/05/09 05:48:08;;;;;;;383.50;93.17;;;;;;;;;;4985252;28;20651;-59
2023/05/09 05:50:33;;;;;;;374.23;93.50;;;;;;;;;;4986399;28;20258;-59
2023/05/09 05:52:58;;;;;;;381.02;90.60;;;;;;;;;;4985064;28;20054;-58
2023/05/09 05:55:23;;;;;;;374.13;88.77;;;;;;;;;;4984852;28;20079;-58
2023/05/09 05:57:49;;;;;;;383.37;86.50;;;;;;;;;;4986067;28;20635;-60
2023/05/09 06:00:15;;;;;;;357.52;86.88;;;;;;;;;;4983948;28;20296;-59
2023/05/09 06:02:44;;;;;;;340.75;81.90;;;;;;;;;;4971016;28;20019;-57
2023/05/09 06:05:10;;;;;;;358.25;80.28;;;;;;;;;;4984483;28;20034;-58
2023/05/09 06:07:35;;;;;;;324.40;77.95;;;;;;;;;;4984981;28;20038;-61
2023/05/09 06:10:00;;;;;;;290.05;75.47;;;;;;;;;;4985809;28;20021;-59
2023/05/09 06:12:25;;;;;;;321.17;74.13;;;;;;;;;;4982708;28;20706;-59
2023/05/09 06:14:50;;;;;;;324.87;74.00;;;;;;;;;;4984443;28;20353;-59
2023/05/09 06:17:16;;;;;;;354.57;74.27;;;;;;;;;;4984494;28;20266;-58
2023/05/09 06:19:41;;;;;;;307.70;71.50;;;;;;;;;;4986441;28;20057;-59
2023/05/09 06:22:07;;;;;;;308.57;69.73;;;;;;;;;;4984528;28;20042;-59
2023/05/09 06:24:32;;;;;;;301.60;69.17;;;;;;;;;;4983760;28;20352;-59
2023/05/09 06:26:57;;;;;;;295.83;64.57;;;;;;;;;;4983936;28;20049;-57
2023/05/09 06:29:22;;;;;;;300.05;64.78;;;;;;;;;;4983689;28;20287;-58
2023/05/09 06:31:48;;;;;;;272.37;64.70;;;;;;;;;;4984069;28;20052;-58
2023/05/09 06:34:13;;;;;;;283.73;66.23;;;;;;;;;;4987006;28;21040;-58
2023/05/09 06:36:38;;;;;;;320.20;66.33;;;;;;;;;;4985427;28;21197;-58
2023/05/09 06:39:03;;;;;;;277.35;66.07;;;;;;;;;;4984304;28;20142;-58
2023/05/09 06:41:29;;;;;;;287.87;65.27;;;;;;;;;;4985236;28;20031;-57
2023/05/09 06:43:54;;;;;;;421.03;69.07;;;;;;;;;;4983803;28;20033;-60
2023/05/09 06:46:19;;;;;;;268.37;64.67;;;;;;;;;;4985460;28;20341;-58
2023/05/09 06:48:44;;;;;;;296.07;64.77;;;;;;;;;;4967557;28;20052;-58
2023/05/09 06:51:10;;;;;;;308.07;66.47;;;;;;;;;;4985007;28;20257;-57
2023/05/09 06:53:35;;;;;;;300.05;64.53;;;;;;;;;;4983491;28;20642;-57
2023/05/09 06:56:01;;;;;;;305.83;64.90;;;;;;;;;;4985089;28;20167;-58
2023/05/09 06:58:27;;;;;;;271.07;64.33;;;;;;;;;;4985425;28;20137;-59
2023/05/09 07:00:52;;;;;;;311.75;65.22;;;;;;;;;;4984265;28;20960;-59
2023/05/09 07:03:17;;;;;;;316.83;65.53;;;;;;;;;;4984213;28;20622;-58
2023/05/09 07:05:43;;;;;;;291.03;64.67;;;;;;;;;;4984164;28;20417;-58
2023/05/09 07:08:08;;;;;;;296.13;64.63;;;;;;;;;;4983917;28;20291;-58
2023/05/09 07:10:33;;;;;;;275.80;64.37;;;;;;;;;;4984645;28;20217;-59
2023/05/09 07:12:58;;;;;;;279.85;65.78;;;;;;;;;;4985040;28;20722;-59
2023/05/09 07:15:24;;;;;;;289.47;64.57;;;;;;;;;;4981647;28;20212;-59
2023/05/09 07:17:49;;;;;;;282.67;61.53;;;;;;;;;;4983574;28;20778;-59
2023/05/09 07:20:14;;;;;;;300.83;63.72;;;;;;;;;;4984626;28;20053;-60
2023/05/09 07:22:40;;;;;;;294.80;63.30;;;;;;;;;;4985171;28;20018;-58
2023/05/09 07:25:08;;;;;;;271.57;62.87;;;;;;;;;;4983073;28;20368;-57
2023/05/09 07:27:34;;;;;;;310.55;62.88;;;;;;;;;;4984668;28;20261;-58
2023/05/09 07:29:59;;;;;;;302.50;63.42;;;;;;;;;;4984939;28;20400;-59
2023/05/09 07:32:27;;;;;;;255.15;60.47;;;;;;;;;;4983644;28;20087;-59
2023/05/09 07:34:52;;;;;;;296.65;62.17;;;;;;;;;;4982837;28;20109;-59
2023/05/09 07:37:18;;;;;;;274.30;53.17;;;;;;;;;;4983572;28;20038;-60
2023/05/09 07:39:43;;;;;;;275.88;53.97;;;;;;;;;;4983805;28;20038;-59
2023/05/09 07:42:08;;;;;;;300.95;58.42;;;;;;;;;;4981966;28;21044;-58
2023/05/09 07:44:33;;;;;;;262.63;56.40;;;;;;;;;;4983469;28;20026;-58
2023/05/09 07:46:59;;;;;;;276.93;57.80;;;;;;;;;;4985832;28;20609;-58
2023/05/09 07:49:25;;;;;;;266.10;58.65;;;;;;;;;;4984273;28;20022;-59
2023/05/09 07:51:50;;;;;;;266.00;57.53;;;;;;;;;;4983911;28;20039;-57
2023/05/09 07:54:15;;;;;;;318.63;60.27;;;;;;;;;;4982761;28;20265;-58
2023/05/09 07:56:41;;;;;;;254.50;58.87;;;;;;;;;;4983180;28;20069;-58
2023/05/09 07:59:06;;;;;;;302.45;60.58;;;;;;;;;;4985474;28;20265;-57
2023/05/09 08:01:31;;;;;;;309.70;61.97;;;;;;;;;;4982222;28;20442;-57
2023/05/09 08:03:56;;;;;;;321.17;60.07;;;;;;;;;;4984532;28;20878;-60
2023/05/09 08:06:22;;;;;;;288.37;60.73;;;;;;;;;;4983299;28;20129;-58
2023/05/09 08:08:47;;;;;;;287.07;61.27;;;;;;;;;;4982840;28;20397;-59
2023/05/09 08:11:12;;;;;;;275.20;62.30;;;;;;;;;;4964995;28;20971;-58
2023/05/09 08:13:37;;;;;;;318.53;58.23;;;;;;;;;;4985359;28;20286;-59
2023/05/09 08:16:03;;;;;;;278.70;60.10;;;;;;;;;;4982575;28;20125;-58
2023/05/09 08:18:28;;;;;;;257.70;57.40;;;;;;;;;;4981909;28;20026;-59
2023/05/09 08:20:53;;;;;;;290.13;62.20;;;;;;;;;;4983530;28;20032;-58
2023/05/09 08:23:18;;;;;;;291.93;62.07;;;;;;;;;;4983853;28;20250;-59
2023/05/09 08:25:44;;;;;;;308.60;61.83;;;;;;;;;;4982301;28;20288;-59
2023/05/09 08:28:09;;;;;;;326.93;62.63;;;;;;;;;;4983076;28;20785;-58
2023/05/09 08:30:35;;;;;;;244.43;43.38;;;;;;;;;;4983608;28;20304;-60
2023/05/09 08:33:00;;;;;;;234.90;49.63;;;;;;;;;;4983996;28;20415;-57
2023/05/09 08:35:25;;;;;;;252.48;51.75;;;;;;;;;;4981898;28;20029;-59
2023/05/09 08:37:51;;;;;;;255.13;53.57;;;;;;;;;;4984796;28;20379;-57
2023/05/09 08:40:16;;;;;;;320.27;58.20;;;;;;;;;;4983315;28;20258;-59
2023/05/09 08:42:43;;;;;;;278.53;56.47;;;;;;;;;;4984258;28;20042;-58
2023/05/09 08:45:09;;;;;;;252.23;55.33;;;;;;;;;;4981919;28;20328;-59
2023/05/09 08:47:34;;;;;;;380.15;59.03;;;;;;;;;;4982224;28;20066;-58
2023/05/09 08:50:01;;;;;;;270.88;56.70;;;;;;;;;;4983029;28;20164;-58
2023/05/09 08:52:28;;;;;;;277.85;60.78;;;;;;;;;;4984007;28;20833;-57
2023/05/09 08:54:53;;;;;;;283.88;62.58;;;;;;;;;;4983907;28;20439;-58
2023/05/09 08:57:19;;;;;;;297.43;62.47;;;;;;;;;;4982290;28;20527;-57
2023/05/09 08:59:45;;;;;;;315.53;63.87;;;;;;;;;;4983047;28;20400;-59
2023/05/09 09:02:13;;;;;;;297.90;65.43;;;;;;;;;;4983867;28;20266;-58
2023/05/09 09:04:38;;;;;;;294.58;63.63;;;;;;;;;;4984338;28;20022;-60
2023/05/09 09:07:04;;;;;;;310.63;63.47;;;;;;;;;;4981410;28;20018;-58
2023/05/09 09:09:30;;;;;;;256.65;60.65;;;;;;;;;;4984478;28;20030;-58
2023/05/09 09:11:56;;;;;;;259.70;60.60;;;;;;;;;;4984676;28;20037;-60
2023/05/09 09:14:26;;;;;;;278.60;59.88;;;;;;;;;;4982481;28;20144;-58
2023/05/09 09:16:53;;;;;;;287.13;62.42;;;;;;;;;;4982639;28;20026;-59
2023/05/09 09:19:19;;;;;;;533.90;68.55;;;;;;;;;;4981048;28;20022;-57
2023/05/09 09:21:46;;;;;;;289.20;60.25;;;;;;;;;;4982367;28;20030;-60
2023/05/09 09:24:12;;;;;;;271.80;56.83;;;;;;;;;;4981371;28;20110;-58
2023/05/09 09:26:47;;;;;;;293.10;58.70;;;;;;;;;;4983462;28;20065;-60
2023/05/09 09:29:13;;;;;;;266.55;58.45;;;;;;;;;;4983518;28;20026;-58
2023/05/09 09:31:42;;;;;;;316.88;62.70;;;;;;;;;;4982555;28;20034;-58
2023/05/09 09:34:07;;;;;;;292.90;62.72;;;;;;;;;;4981846;28;20899;-59
2023/05/09 09:36:33;;;;;;;284.67;62.77;;;;;;;;;;4983230;28;20076;-59
2023/05/09 09:38:59;;;;;;;285.92;66.65;;;;;;;;;;4986149;28;20434;-58
2023/05/09 09:41:31;;;;;;;302.95;65.25;;;;;;;;;;4986928;28;20159;-59
2023/05/09 09:43:57;;;;;;;307.42;66.53;;;;;;;;;;4986223;28;20581;-60
2023/05/09 09:46:22;;;;;;;295.75;64.97;;;;;;;;;;4985001;28;20583;-57
2023/05/09 09:48:51;;;;;;;282.88;62.90;;;;;;;;;;4984476;28;20487;-59
2023/05/09 09:51:17;;;;;;;294.40;64.93;;;;;;;;;;5017222;28;20072;-57
2023/05/09 09:53:43;;;;;;;345.33;60.83;;;;;;;;;;4983867;28;20034;-59
2023/05/09 09:56:08;;;;;;;350.08;64.95;;;;;;;;;;4976670;28;20336;-59
2023/05/09 09:58:34;;;;;;;298.60;63.35;;;;;;;;;;4985644;28;20762;-60
2023/05/09 10:01:09;;;;;;;265.35;60.50;;;;;;;;;;4984790;28;20030;-57
2023/05/09 10:03:35;;;;;;;267.55;62.78;;;;;;;;;;4986790;28;20025;-58
2023/05/09 10:06:01;;;;;;;281.25;62.50;;;;;;;;;;4984880;28;20821;-58
2023/05/09 10:08:26;;;;;;;312.55;63.65;;;;;;;;;;4986916;28;20018;-59
2023/05/09 10:10:51;;;;;;;272.57;60.80;;;;;;;;;;4985739;28;20345;-59
2023/05/09 10:13:17;;;;;;;301.50;62.77;;;;;;;;;;4986049;28;20030;-58
2023/05/09 10:15:42;;;;;;;265.48;58.95;;;;;;;;;;4985298;28;20027;-60
2023/05/09 10:18:09;;;;;;;298.73;62.75;;;;;;;;;;4985471;28;20022;-59
2023/05/09 10:20:38;;;;;;;349.10;64.53;;;;;;;;;;4982587;28;20469;-58
2023/05/09 10:23:05;;;;;;;280.52;63.42;;;;;;;;;;4987091;28;20780;-57
2023/05/09 10:25:39;;;;;;;253.73;64.75;;;;;;;;;;4983707;28;20034;-59
2023/05/09 10:28:11;;;;;;;296.42;68.18;;;;;;;;;;4984613;28;20030;-58
2023/05/09 10:30:45;;;;;;;336.65;69.95;;;;;;;;;;4984788;28;20084;-60
2023/05/09 10:33:12;;;;;;;325.83;69.88;;;;;;;;;;4985025;28;20027;-60
2023/05/09 10:35:45;;;;;;;307.60;68.68;;;;;;;;;;4984516;28;20483;-59
2023/05/09 10:38:11;;;;;;;326.38;70.15;;;;;;;;;;4984623;28;20903;-58
2023/05/09 10:40:36;;;;;;;303.80;69.53;;;;;;;;;;4984239;28;20040;-57
2023/05/09 10:43:02;;;;;;;351.60;71.53;;;;;;;;;;4985836;28;20025;-59
2023/05/09 10:45:27;;;;;;;296.52;71.25;;;;;;;;;;4983006;28;20724;-60
2023/05/09 10:47:55;;;;;;;294.15;70.40;;;;;;;;;;4985075;28;20758;-59
2023/05/09 10:50:21;;;;;;;314.35;71.85;;;;;;;;;;4982580;28;20119;-58
2023/05/09 10:53:02;;;;;;;338.42;70.38;;;;;;;;;;4984741;28;20030;-59
2023/05/09 10:55:38;;;;;;;289.23;65.78;;;;;;;;;;4983228;28;20546;-58
2023/05/09 10:58:23;;;;;;;291.83;68.60;;;;;;;;;;4985537;28;20114;-59
2023/05/09 11:00:49;;;;;;;288.60;68.43;;;;;;;;;;4984833;28;20034;-58
2023/05/09 11:03:15;;;;;;;308.67;68.38;;;;;;;;;;4983781;28;20079;-59
2023/05/09 11:05:41;;;;;;;339.25;71.50;;;;;;;;;;4982122;28;20527;-58
2023/05/09 11:08:24;;;;;;;292.75;70.57;;;;;;;;;;4984383;28;20090;-57
2023/05/09 11:10:50;;;;;;;330.50;71.43;;;;;;;;;;4983123;28;20133;-59
2023/05/09 11:13:24;;;;;;;336.77;71.75;;;;;;;;;;4985030;28;20022;-58
2023/05/09 11:15:49;;;;;;;329.52;71.35;;;;;;;;;;4983814;28;20040;-59
2023/05/09 11:18:15;;;;;;;312.40;69.47;;;;;;;;;;4983075;28;20022;-59
2023/05/09 11:20:44;;;;;;;342.93;70.20;;;;;;;;;;4983108;28;20706;-58
2023/05/09 11:23:10;;;;;;;315.40;70.03;;;;;;;;;;4983843;28;20086;-58
2023/05/09 11:25:37;;;;;;;296.35;69.38;;;;;;;;;;4983386;28;20353;-57
2023/05/09 11:28:02;;;;;;;350.67;69.68;;;;;;;;;;4983743;28;20043;-59
2023/05/09 11:30:35;;;;;;;300.23;69.73;;;;;;;;;;4984205;28;20022;-58
2023/05/09 11:33:01;;;;;;;317.05;71.07;;;;;;;;;;4983940;28;20707;-57
2023/05/09 11:35:26;;;;;;;313.33;73.15;;;;;;;;;;4983100;28;20021;-58
2023/05/09 11:37:58;;;;;;;313.88;73.53;;;;;;;;;;4984410;28;20365;-59
2023/05/09 11:40:24;;;;;;;372.77;76.45;;;;;;;;;;4984186;28;20061;-60
2023/05/09 11:42:52;;;;;;;326.10;77.18;;;;;;;;;;4984843;28;20719;-58
2023/05/09 11:45:17;;;;;;;371.75;80.47;;;;;;;;;;4984296;28;20030;-59
2023/05/09 11:47:43;;;;;;;364.85;79.00;;;;;;;;;;4984375;28;20421;-59
2023/05/09 11:50:10;;;;;;;322.60;79.22;;;;;;;;;;4985438;28;20394;-59
2023/05/09 11:52:36;;;;;;;385.35;84.00;;;;;;;;;;4985769;28;20692;-59
2023/05/09 11:55:02;;;;;;;345.63;82.88;;;;;;;;;;4982801;28;20570;-57
2023/05/09 11:57:27;;;;;;;379.45;83.43;;;;;;;;;;4984427;28;20595;-58
2023/05/09 11:59:53;;;;;;;376.30;84.30;;;;;;;;;;4984892;28;20399;-57
2023/05/09 12:02:18;;;;;;;424.17;87.07;;;;;;;;;;4982445;28;20034;-57
2023/05/09 12:04:43;;;;;;;380.90;85.50;;;;;;;;;;4984847;28;20400;-57
2023/05/09 12:07:10;;;;;;;374.70;85.03;;;;;;;;;;4983218;28;20034;-56
2023/05/09 12:09:37;;;;;;;350.75;84.90;;;;;;;;;;4984899;28;20499;-58
2023/05/09 12:12:07;;;;;;;395.38;84.43;;;;;;;;;;4982557;28;20157;-58
2023/05/09 12:14:33;;;;;;;362.48;84.60;;;;;;;;;;4982329;28;20022;-57
2023/05/09 12:16:59;;;;;;;365.95;81.95;;;;;;;;;;4982666;28;20868;-58
2023/05/09 12:19:24;;;;;;;356.75;82.15;;;;;;;;;;4981911;28;20057;-59
2023/05/09 12:21:54;;;;;;;366.38;82.18;;;;;;;;;;4982410;28;20089;-58
2023/05/09 12:24:20;;;;;;;375.30;84.10;;;;;;;;;;4982355;28;20023;-59
2023/05/09 12:26:46;;;;;;;376.98;82.75;;;;;;;;;;4984010;28;20030;-57
2023/05/09 12:29:11;;;;;;;383.52;82.78;;;;;;;;;;4982362;28;20018;-58
2023/05/09 12:31:37;;;;;;;359.27;82.43;;;;;;;;;;4984369;28;20038;-59
2023/05/09 12:34:02;;;;;;;377.48;82.95;;;;;;;;;;4983935;28;20045;-57
2023/05/09 12:36:33;;;;;;;401.73;85.20;;;;;;;;;;4981963;28;20049;-57
2023/05/09 12:38:58;;;;;;;334.58;83.55;;;;;;;;;;4981791;28;20105;-58
2023/05/09 12:41:23;;;;;;;326.67;82.50;;;;;;;;;;4982879;28;20189;-59
2023/05/09 12:43:49;;;;;;;468.55;86.55;;;;;;;;;;4982049;28;20750;-59
2023/05/09 12:46:18;;;;;;;364.95;85.15;;;;;;;;;;4975624;28;20054;-58
2023/05/09 12:48:44;;;;;;;392.45;85.65;;;;;;;;;;4972129;28;20369;-58
2023/05/09 12:51:09;;;;;;;382.83;84.82;;;;;;;;;;4982435;28;20508;-58
2023/05/09 12:53:38;;;;;;;345.20;81.33;;;;;;;;;;4983528;28;20763;-59
2023/05/09 12:56:10;;;;;;;369.65;80.45;;;;;;;;;;4981342;28;20038;-57
2023/05/09 12:58:35;;;;;;;352.27;81.00;;;;;;;;;;4981937;28;20161;-57
2023/05/09 13:01:02;;;;;;;367.42;80.07;;;;;;;;;;4981844;28;20125;-57
2023/05/09 13:03:31;;;;;;;327.00;79.53;;;;;;;;;;4982509;28;20747;-59
2023/05/09 13:06:00;;;;;;;380.67;81.82;;;;;;;;;;4982501;28;20853;-58
2023/05/09 13:08:26;;;;;;;365.42;81.38;;;;;;;;;;4984541;28;20029;-59
2023/05/09 13:10:51;;;;;;;358.77;81.55;;;;;;;;;;4986725;28;20698;-59
2023/05/09 13:13:17;;;;;;;399.77;82.90;;;;;;;;;;4987671;28;20029;-59
2023/05/09 13:15:42;;;;;;;353.65;82.63;;;;;;;;;;4986056;28;20068;-58
2023/05/09 13:18:07;;;;;;;388.48;84.05;;;;;;;;;;4986387;28;20022;-57
2023/05/09 13:20:33;;;;;;;361.27;83.97;;;;;;;;;;4985181;28;20479;-58
2023/05/09 13:22:58;;;;;;;367.13;83.97;;;;;;;;;;4986692;28;20253;-59
2023/05/09 13:25:23;;;;;;;369.08;85.65;;;;;;;;;;4985948;28;20026;-58
2023/05/09 13:27:48;;;;;;;405.00;87.90;;;;;;;;;;4986032;28;20101;-57
2023/05/09 13:30:15;;;;;;;373.67;86.87;;;;;;;;;;4985633;28;20023;-57
2023/05/09 13:32:40;;;;;;;400.50;87.38;;;;;;;;;;4985471;28;20122;-59
2023/05/09 13:35:06;;;;;;;355.27;84.00;;;;;;;;;;4984896;28;20033;-60
2023/05/09 13:37:32;;;;;;;409.77;85.32;;;;;;;;;;4985165;28;20026;-58
2023/05/09 13:39:57;;;;;;;375.50;85.47;;;;;;;;;;4986134;28;20082;-59
2023/05/09 13:42:22;;;;;;;359.80;85.60;;;;;;;;;;4985974;28;20058;-58
2023/05/09 13:44:48;;;;;;;389.73;84.90;;;;;;;;;;4984522;28;20038;-60
2023/05/09 13:47:13;;;;;;;383.13;84.70;;;;;;;;;;4984324;28;20713;-58
2023/05/09 13:49:38;;;;;;;374.47;86.17;;;;;;;;;;4985801;28;20796;-57
2023/05/09 13:52:04;;;;;;;385.27;86.93;;;;;;;;;;4985568;28;20694;-59
2023/05/09 13:54:33;;;;;;;364.08;86.68;;;;;;;;;;4985692;28;20265;-58
2023/05/09 13:57:00;;;;;;;397.23;88.53;;;;;;;;;;4984222;28;20030;-59